createdAt,value
2022-08-25T00:00:35.336Z,100028.88
2022-08-25T00:03:04.066Z,100026.88
2022-08-25T00:05:33.719Z,100031.69
2022-08-25T00:08:06.465Z,100036.84
2022-08-25T00:10:37.978Z,100023.38
2022-08-25T00:13:07.003Z,100023.72
2022-08-25T00:15:36.519Z,100024.69
2022-08-25T00:18:05.716Z,99999.53
2022-08-25T00:20:49.103Z,100026.06
2022-08-25T00:23:19.383Z,100030.19
2022-08-25T00:25:48.814Z,100019.06
2022-08-25T00:28:18.213Z,100034.16
2022-08-25T00:30:46.730Z,100033.63
2022-08-25T00:33:15.330Z,100021.19
2022-08-25T00:35:45.027Z,100024.19
2022-08-25T00:38:14.266Z,100021.81
2022-08-25T00:40:44.966Z,100021.81
2022-08-25T00:43:14.301Z,100023.84
2022-08-25T00:45:42.971Z,100019.16
2022-08-25T00:48:11.527Z,100000.31
2022-08-25T00:50:40.053Z,100024.56
2022-08-25T00:53:09.962Z,100013.09
2022-08-25T00:55:42.358Z,100021.22
2022-08-25T00:58:17.324Z,100004.69
2022-08-25T01:00:49.238Z,100017.56
2022-08-25T01:03:19.350Z,100008.97
2022-08-25T01:05:49.163Z,100015.91
2022-08-25T01:08:21.340Z,100002.00
2022-08-25T01:10:51.890Z,99995.00
2022-08-25T01:13:27.988Z,99999.03
2022-08-25T01:15:59.091Z,99986.25
2022-08-25T01:18:28.554Z,100008.75
2022-08-25T01:21:00.073Z,99998.50
2022-08-25T01:23:28.944Z,100001.97
2022-08-25T01:26:03.113Z,100012.44
2022-08-25T01:28:32.417Z,100010.56
2022-08-25T01:31:01.812Z,99988.34
2022-08-25T01:33:30.387Z,100007.41
2022-08-25T01:36:00.224Z,99997.63
2022-08-25T01:38:28.749Z,99991.13
2022-08-25T01:40:57.270Z,99983.38
2022-08-25T01:43:33.817Z,99978.56
2022-08-25T01:46:02.556Z,99993.00
2022-08-25T01:48:32.975Z,99983.03
2022-08-25T01:51:02.938Z,99986.16
2022-08-25T01:53:33.864Z,99992.59
2022-08-25T01:56:11.824Z,99994.91
2022-08-25T01:58:43.056Z,100000.91
2022-08-25T02:01:17.784Z,100002.03
2022-08-25T02:03:49.941Z,99978.06
2022-08-25T02:06:27.670Z,100000.56
2022-08-25T02:09:01.395Z,99994.44
2022-08-25T02:11:30.487Z,99982.53
2022-08-25T02:14:00.085Z,99990.00
2022-08-25T02:16:32.231Z,99986.88
2022-08-25T02:19:01.213Z,99974.31
2022-08-25T02:21:32.817Z,99990.72
2022-08-25T02:24:01.534Z,99991.06
2022-08-25T02:26:30.857Z,99989.03
2022-08-25T02:28:59.421Z,99975.75
2022-08-25T02:31:28.742Z,99991.47
2022-08-25T02:33:57.836Z,99960.81
2022-08-25T02:36:27.043Z,99990.66
2022-08-25T02:38:57.269Z,99992.31
2022-08-25T02:41:30.967Z,99988.31
2022-08-25T02:44:01.675Z,99989.94
2022-08-25T02:46:31.285Z,99981.06
2022-08-25T02:49:00.221Z,99974.50
2022-08-25T02:51:30.368Z,99991.38
2022-08-25T02:54:02.940Z,99988.06
2022-08-25T02:56:31.801Z,99982.75
2022-08-25T02:59:00.295Z,99982.13
2022-08-25T03:01:30.331Z,100001.88
2022-08-25T03:03:59.318Z,100002.41
2022-08-25T03:06:28.329Z,100001.22
2022-08-25T03:08:57.427Z,100006.03
2022-08-25T03:11:27.562Z,100009.19
2022-08-25T03:14:07.163Z,99996.78
2022-08-25T03:16:36.131Z,99979.22
2022-08-25T03:19:05.664Z,99993.31
2022-08-25T03:21:34.620Z,100003.75
2022-08-25T03:24:03.540Z,99967.31
2022-08-25T03:26:51.304Z,100004.91
2022-08-25T03:29:20.300Z,99997.41
2022-08-25T03:31:49.344Z,100009.00
2022-08-25T03:34:20.324Z,100005.34
2022-08-25T03:36:53.504Z,99999.88
2022-08-25T03:39:23.896Z,100003.69
2022-08-25T03:41:54.437Z,100002.88
2022-08-25T03:44:24.239Z,100006.31
2022-08-25T03:46:53.541Z,99994.41
2022-08-25T03:49:24.834Z,100004.19
2022-08-25T03:51:55.628Z,100002.06
2022-08-25T03:54:26.870Z,100003.56
2022-08-25T03:56:56.977Z,100005.09
2022-08-25T03:59:27.283Z,100005.72
2022-08-25T04:05:06.569Z,100003.50
2022-08-25T04:07:35.467Z,100006.19
2022-08-25T04:10:04.190Z,100008.38
2022-08-25T04:12:34.465Z,100004.41
2022-08-25T04:15:03.210Z,99997.09
2022-08-25T04:17:31.756Z,99998.75
2022-08-25T04:20:00.519Z,100000.44
2022-08-25T04:22:29.346Z,100006.41
2022-08-25T04:25:00.234Z,99971.94
2022-08-25T04:27:29.391Z,100002.28
2022-08-25T04:29:59.553Z,100006.41
2022-08-25T04:32:28.129Z,100002.75
2022-08-25T04:34:56.923Z,99998.94
2022-08-25T04:37:25.438Z,100005.72
2022-08-25T04:39:54.154Z,100000.09
2022-08-25T04:42:23.170Z,99990.84
2022-08-25T04:44:51.772Z,99998.44
2022-08-25T04:47:21.920Z,99991.81
2022-08-25T04:49:50.461Z,99994.97
2022-08-25T04:52:19.349Z,99996.63
2022-08-25T04:54:48.450Z,99994.47
2022-08-25T04:57:17.014Z,99998.09
2022-08-25T04:59:45.897Z,99999.41
2022-08-25T05:02:15.166Z,99997.06
2022-08-25T05:04:45.566Z,100001.19
2022-08-25T05:07:14.601Z,99979.50
2022-08-25T05:09:43.373Z,100013.97
2022-08-25T05:12:12.273Z,100013.97
2022-08-25T05:14:41.634Z,100016.94
2022-08-25T05:17:10.447Z,100000.03
2022-08-25T05:19:39.244Z,100009.00
2022-08-25T05:22:10.460Z,100019.44
2022-08-25T05:24:39.241Z,100014.97
2022-08-25T05:27:07.927Z,100017.56
2022-08-25T05:29:37.115Z,100021.91
2022-08-25T05:32:06.243Z,100023.22
2022-08-25T05:34:34.980Z,100014.91
2022-08-25T05:37:05.958Z,100012.44
2022-08-25T05:39:37.552Z,100023.38
2022-08-25T05:42:07.005Z,100017.56
2022-08-25T05:44:35.780Z,100005.13
2022-08-25T05:47:05.219Z,100026.69
2022-08-25T05:49:34.236Z,100031.66
2022-08-25T05:52:03.038Z,100012.75
2022-08-25T05:54:33.893Z,100025.84
2022-08-25T05:57:04.388Z,99997.88
2022-08-25T05:59:33.132Z,100028.19
2022-08-25T06:02:19.400Z,100028.22
2022-08-25T06:04:48.610Z,100029.53
2022-08-25T06:07:17.452Z,100029.53
2022-08-25T06:09:49.191Z,100032.00
2022-08-25T06:12:21.891Z,99988.91
2022-08-25T06:14:50.808Z,100003.59
2022-08-25T06:17:19.782Z,100029.63
2022-08-25T06:19:48.541Z,100014.69
2022-08-25T06:22:17.358Z,100030.44
2022-08-25T06:24:46.288Z,100030.63
2022-08-25T06:27:15.381Z,100021.13
2022-08-25T06:29:46.184Z,100030.41
2022-08-25T06:32:15.337Z,100039.38
2022-08-25T06:34:44.095Z,100018.31
2022-08-25T06:37:13.033Z,100043.97
2022-08-25T06:39:42.303Z,100045.31
2022-08-25T06:42:11.299Z,100053.91
2022-08-25T06:44:41.338Z,100048.09
2022-08-25T06:47:11.802Z,100045.31
2022-08-25T06:49:40.600Z,100044.34
2022-08-25T06:52:09.960Z,100041.38
2022-08-25T06:54:38.936Z,100037.13
2022-08-25T06:57:08.973Z,100031.31
2022-08-25T06:59:38.970Z,100043.88
2022-08-25T07:02:12.237Z,100030.16
2022-08-25T07:04:41.161Z,100024.50
2022-08-25T07:07:10.230Z,100040.06
2022-08-25T07:09:39.354Z,100008.84
2022-08-25T07:12:09.060Z,100029.09
2022-08-25T07:14:38.242Z,100029.25
2022-08-25T07:17:11.055Z,100034.25
2022-08-25T07:19:43.352Z,100037.97
2022-08-25T07:22:13.149Z,100028.16
2022-08-25T07:24:42.839Z,100028.63
2022-08-25T07:27:11.804Z,100000.78
2022-08-25T07:29:42.221Z,100031.97
2022-08-25T07:32:12.093Z,100008.09
2022-08-25T07:34:59.587Z,99986.28
2022-08-25T07:37:48.186Z,100023.47
2022-08-25T07:40:20.230Z,100015.56
2022-08-25T07:42:50.929Z,100013.00
2022-08-25T07:45:25.576Z,100010.94
2022-08-25T07:47:54.736Z,100017.94
2022-08-25T07:50:25.470Z,100024.69
2022-08-25T07:52:55.156Z,100030.78
2022-08-25T07:55:26.178Z,100016.84
2022-08-25T07:57:57.522Z,100004.34
2022-08-25T08:00:28.517Z,100010.94
2022-08-25T08:03:07.014Z,100001.41
2022-08-25T08:05:41.672Z,100022.72
2022-08-25T08:08:10.457Z,100032.09
2022-08-25T08:11:04.025Z,100032.69
2022-08-25T08:13:33.172Z,100035.41
2022-08-25T08:16:09.561Z,100009.69
2022-08-25T08:18:39.897Z,100043.78
2022-08-25T08:21:13.275Z,100044.63
2022-08-25T08:23:49.308Z,100028.63
2022-08-25T08:26:19.288Z,100037.03
2022-08-25T08:28:51.828Z,100039.81
2022-08-25T08:31:21.477Z,100039.44
2022-08-25T08:33:51.376Z,100040.06
2022-08-25T08:36:21.705Z,100033.69
2022-08-25T08:38:54.383Z,100046.41
2022-08-25T08:42:12.496Z,100043.09
2022-08-25T08:44:58.030Z,100040.94
2022-08-25T08:47:38.404Z,100039.13
2022-08-25T08:50:23.120Z,100041.50
2022-08-25T08:53:02.006Z,100029.44
2022-08-25T08:55:35.047Z,100028.09
2022-08-25T08:58:08.686Z,100035.00
2022-08-25T09:00:41.674Z,100025.00
2022-08-25T09:03:34.871Z,100039.75
2022-08-25T09:06:07.184Z,100034.88
2022-08-25T09:08:39.148Z,100039.59
2022-08-25T09:11:24.398Z,100037.22
2022-08-25T09:14:10.698Z,100039.91
2022-08-25T09:16:58.251Z,100037.78
2022-08-25T09:19:43.463Z,100023.66
2022-08-25T09:22:35.995Z,100040.94
2022-08-25T09:25:21.930Z,100039.06
2022-08-25T09:28:08.237Z,100016.56
2022-08-25T09:30:46.442Z,100035.91
2022-08-25T09:33:20.937Z,100032.03
2022-08-25T09:35:51.874Z,100029.56
2022-08-25T09:38:22.851Z,100027.94
2022-08-25T09:40:56.962Z,100036.84
2022-08-25T09:43:33.291Z,100022.44
2022-08-25T09:46:10.724Z,100027.19
2022-08-25T09:48:46.506Z,100026.56
2022-08-25T09:51:22.021Z,100027.16
2022-08-25T09:53:56.218Z,100024.09
2022-08-25T09:56:28.803Z,100023.34
2022-08-25T09:59:03.086Z,100029.03
2022-08-25T10:01:34.992Z,100023.59
2022-08-25T10:04:05.899Z,100025.44
2022-08-25T10:06:45.578Z,100024.28
2022-08-25T10:09:26.905Z,100026.13
2022-08-25T10:12:00.120Z,100014.50
2022-08-25T10:14:36.383Z,100007.16
2022-08-25T10:17:27.614Z,100007.47
2022-08-25T10:20:17.358Z,100024.00
2022-08-25T10:22:48.189Z,100021.34
2022-08-25T10:25:27.092Z,100009.31
2022-08-25T10:28:12.583Z,100013.41
2022-08-25T10:31:00.475Z,100019.97
2022-08-25T10:33:39.220Z,100009.50
2022-08-25T10:36:16.402Z,100014.44
2022-08-25T10:38:55.365Z,100017.16
2022-08-25T10:41:41.028Z,100017.16
2022-08-25T10:44:37.326Z,99998.63
2022-08-25T10:47:28.939Z,99999.59
2022-08-25T10:50:05.512Z,100002.75
2022-08-25T10:52:45.246Z,99989.41
2022-08-25T10:55:20.079Z,99991.47
2022-08-25T10:57:57.614Z,99994.19
2022-08-25T11:00:35.380Z,99985.94
2022-08-25T11:03:25.508Z,99980.50
2022-08-25T11:06:01.733Z,99988.69
2022-08-25T11:08:36.545Z,99991.00
2022-08-25T11:11:10.883Z,99979.63
2022-08-25T11:13:45.198Z,99966.69
2022-08-25T11:16:20.213Z,99988.47
2022-08-25T11:18:56.191Z,99980.69
2022-08-25T11:21:31.373Z,99968.59
2022-08-25T11:24:09.409Z,99948.84
2022-08-25T11:26:43.168Z,99951.56
2022-08-25T11:29:16.635Z,99955.31
2022-08-25T11:31:53.308Z,99947.03
2022-08-25T11:34:23.579Z,99954.84
2022-08-25T11:36:56.037Z,99946.72
2022-08-25T11:39:40.212Z,99950.31
2022-08-25T11:42:22.923Z,99944.31
2022-08-25T11:45:03.968Z,99945.75
2022-08-25T11:47:55.780Z,99940.63
2022-08-25T11:50:31.407Z,99929.50
2022-08-25T11:53:16.955Z,99926.00
2022-08-25T11:55:50.241Z,99918.97
2022-08-25T11:58:32.822Z,99909.19
2022-08-25T12:01:03.430Z,99922.75
2022-08-25T12:03:53.344Z,99908.75
2022-08-25T12:06:29.703Z,99909.44
2022-08-25T12:09:22.790Z,99917.91
2022-08-25T12:11:59.467Z,99916.78
2022-08-25T12:14:46.383Z,99908.31
2022-08-25T12:17:25.497Z,99895.81
2022-08-25T12:20:01.705Z,99900.06
2022-08-25T12:22:55.417Z,99880.72
2022-08-25T12:25:47.667Z,99895.13
2022-08-25T12:28:39.183Z,99885.88
2022-08-25T12:31:19.309Z,99896.78
2022-08-25T12:34:04.628Z,99874.75
2022-08-25T12:36:35.741Z,99886.63
2022-08-25T12:39:24.500Z,99888.84
2022-08-25T12:41:57.278Z,99882.09
2022-08-25T12:44:41.262Z,99883.09
2022-08-25T12:47:28.228Z,99878.41
2022-08-25T12:50:33.355Z,99871.16
2022-08-25T12:53:12.495Z,99830.78
2022-08-25T12:55:47.828Z,99857.22
2022-08-25T12:58:17.949Z,99871.63
2022-08-25T13:01:09.315Z,99864.47
2022-08-25T13:04:14.088Z,99863.31
2022-08-25T13:06:57.116Z,99853.34
2022-08-25T13:10:02.054Z,99850.28
2022-08-25T13:12:39.136Z,99855.88
2022-08-25T13:15:14.303Z,99857.19
2022-08-25T13:17:43.936Z,99858.38
2022-08-25T13:20:19.999Z,99850.81
2022-08-25T13:22:55.262Z,99849.66
2022-08-25T13:25:32.019Z,99833.34
2022-08-25T13:28:04.374Z,99835.47
2022-08-25T13:30:36.504Z,99837.91
2022-08-25T13:33:20.125Z,99843.56
2022-08-25T13:35:50.317Z,99836.63
2022-08-25T13:38:20.064Z,99829.03
2022-08-25T13:40:50.799Z,99837.75
2022-08-25T13:43:22.521Z,99840.97
2022-08-25T13:45:56.844Z,99836.63
2022-08-25T13:48:35.160Z,99832.84
2022-08-25T13:51:22.627Z,99826.03
2022-08-25T13:53:59.098Z,99833.34
2022-08-25T13:56:40.693Z,99829.56
2022-08-25T13:59:23.135Z,99824.69
2022-08-25T14:01:54.398Z,99818.75
2022-08-25T14:04:33.062Z,99819.78
2022-08-25T14:07:25.135Z,99809.50
2022-08-25T14:09:55.918Z,99799.69
2022-08-25T14:12:39.696Z,99804.59
2022-08-25T14:15:31.995Z,99790.16
2022-08-25T14:18:05.640Z,99784.16
2022-08-25T14:20:37.474Z,99779.84
2022-08-25T14:23:10.253Z,99789.78
2022-08-25T14:25:40.478Z,99777.06
2022-08-25T14:28:15.553Z,99789.81
2022-08-25T14:30:49.465Z,99788.16
2022-08-25T14:33:23.840Z,99778.38
2022-08-25T14:35:55.571Z,99783.84
2022-08-25T14:38:25.956Z,99759.66
2022-08-25T14:40:55.002Z,99777.94
2022-08-25T14:43:31.467Z,99760.56
2022-08-25T14:46:02.600Z,99766.44
2022-08-25T14:48:37.209Z,99763.25
2022-08-25T14:51:06.381Z,99763.25
2022-08-25T14:53:35.299Z,99750.75
2022-08-25T14:56:06.883Z,99743.69
2022-08-25T14:58:48.470Z,99745.81
2022-08-25T15:01:29.264Z,99743.63
2022-08-25T15:04:03.771Z,99737.09
2022-08-25T15:06:32.840Z,99711.56
2022-08-25T15:09:11.166Z,99734.94
2022-08-25T15:11:42.476Z,99739.25
2022-08-25T15:14:15.849Z,99737.03
2022-08-25T15:16:49.467Z,99735.44
2022-08-25T15:19:20.346Z,99736.97
2022-08-25T15:21:49.782Z,99735.38
2022-08-25T15:24:19.928Z,99719.63
2022-08-25T15:29:29.919Z,99718.50
2022-08-25T15:32:00.320Z,99725.03
2022-08-25T15:34:29.389Z,99721.22
2022-08-25T15:36:59.177Z,99723.16
2022-08-25T15:39:27.877Z,99720.94
2022-08-25T15:41:57.293Z,99710.34
2022-08-25T15:44:29.730Z,99722.59
2022-08-25T15:46:59.488Z,99717.16
2022-08-25T15:49:31.231Z,99720.13
2022-08-25T15:52:00.422Z,99721.22
2022-08-25T15:54:30.364Z,99720.97
2022-08-25T15:56:59.934Z,99719.53
2022-08-25T15:59:30.783Z,99718.38
2022-08-25T16:02:00.558Z,99711.78
2022-08-25T16:04:30.314Z,99706.91
2022-08-25T16:07:01.346Z,99715.13
2022-08-25T16:09:31.403Z,99708.88
2022-08-25T16:12:05.396Z,99713.97
2022-08-25T16:14:36.827Z,99700.19
2022-08-25T16:17:06.919Z,99703.38
2022-08-25T16:19:35.748Z,99699.75
2022-08-25T16:22:08.900Z,99707.75
2022-08-25T16:24:42.139Z,99701.19
2022-08-25T16:27:12.165Z,99694.91
2022-08-25T16:29:44.354Z,99696.41
2022-08-25T16:32:14.301Z,99694.00
2022-08-25T16:34:44.248Z,99690.25
2022-08-25T16:37:13.751Z,99692.16
2022-08-25T16:39:46.145Z,99690.84
2022-08-25T16:42:15.362Z,99685.38
2022-08-25T16:44:45.253Z,99693.50
2022-08-25T16:47:14.426Z,99689.97
2022-08-25T16:49:47.025Z,99692.16
2022-08-25T16:52:33.509Z,99695.00
2022-08-25T16:55:14.435Z,99689.38
2022-08-25T16:57:45.500Z,99692.44
2022-08-25T17:00:22.013Z,99687.41
2022-08-25T17:02:51.643Z,99682.78
2022-08-25T17:05:20.325Z,99685.94
2022-08-25T17:08:09.074Z,99699.13
2022-08-25T17:10:41.282Z,99693.00
2022-08-25T17:13:10.849Z,99696.47
2022-08-25T17:15:43.989Z,99685.25
2022-08-25T17:18:13.983Z,99690.78
2022-08-25T17:20:44.777Z,99700.56
2022-08-25T17:23:14.375Z,99687.94
2022-08-25T17:25:44.027Z,99697.56
2022-08-25T17:28:13.236Z,99699.50
2022-08-25T17:30:43.627Z,99691.78
2022-08-25T17:33:12.519Z,99674.53
2022-08-25T17:35:41.998Z,99698.28
2022-08-25T17:38:10.815Z,99691.34
2022-08-25T17:40:40.154Z,99692.53
2022-08-25T17:43:09.756Z,99685.25
2022-08-25T17:45:39.341Z,99679.66
2022-08-25T17:48:10.381Z,99686.69
2022-08-25T17:50:39.426Z,99684.69
2022-08-25T17:53:09.370Z,99681.44
2022-08-25T17:55:38.574Z,99688.09
2022-08-25T17:58:07.128Z,99679.16
2022-08-25T18:00:42.882Z,99690.41
2022-08-25T18:03:14.310Z,99681.69
2022-08-25T18:05:44.202Z,99686.00
2022-08-25T18:08:14.659Z,99681.56
2022-08-25T18:10:44.035Z,99669.91
2022-08-25T18:13:12.961Z,99685.06
2022-08-25T18:15:43.746Z,99667.06
2022-08-25T18:18:14.415Z,99685.13
2022-08-25T18:20:46.624Z,99677.06
2022-08-25T18:23:15.758Z,99681.53
2022-08-25T18:25:44.854Z,99682.09
2022-08-25T18:28:13.615Z,99681.31
2022-08-25T18:30:43.352Z,99691.91
2022-08-25T18:33:13.834Z,99680.19
2022-08-25T18:35:42.894Z,99689.47
2022-08-25T18:38:28.695Z,99674.84
2022-08-25T18:40:58.691Z,99685.53
2022-08-25T18:43:31.258Z,99701.00
2022-08-25T18:46:04.688Z,99692.69
2022-08-25T18:48:35.023Z,99691.28
2022-08-25T18:51:04.554Z,99701.44
2022-08-25T18:53:49.539Z,99698.03
2022-08-25T18:56:18.872Z,99698.13
2022-08-25T18:58:47.927Z,99700.38
2022-08-25T19:01:16.891Z,99688.63
2022-08-25T19:03:48.439Z,99697.41
2022-08-25T19:06:17.181Z,99705.34
2022-08-25T19:08:48.090Z,99701.78
2022-08-25T19:11:17.519Z,99704.00
2022-08-25T19:13:51.629Z,99711.31
2022-08-25T19:16:32.471Z,99708.81
2022-08-25T19:19:04.331Z,99713.00
2022-08-25T19:21:35.593Z,99703.41
2022-08-25T19:24:04.509Z,99703.50
2022-08-25T19:26:35.903Z,99705.84
2022-08-25T19:29:09.613Z,99712.50
2022-08-25T19:31:39.331Z,99710.56
2022-08-25T19:34:11.094Z,99704.06
2022-08-25T19:36:39.965Z,99714.31
2022-08-25T19:39:12.802Z,99721.97
2022-08-25T19:41:42.130Z,99717.50
2022-08-25T19:44:12.525Z,99715.72
2022-08-25T19:46:43.080Z,99721.75
2022-08-25T19:49:16.334Z,99708.03
2022-08-25T19:51:51.043Z,99727.44
2022-08-25T19:54:24.177Z,99714.59
2022-08-25T19:56:54.464Z,99718.34
2022-08-25T19:59:25.801Z,99734.59
2022-08-25T20:01:55.167Z,99736.53
2022-08-25T20:04:25.274Z,99744.34
2022-08-25T20:06:55.314Z,99738.47
2022-08-25T20:09:38.992Z,99752.69
2022-08-25T20:12:11.968Z,99752.16
2022-08-25T20:14:41.439Z,99750.78
2022-08-25T20:17:23.855Z,99754.16
2022-08-25T20:19:57.331Z,99751.22
2022-08-25T20:22:27.165Z,99756.81
2022-08-25T20:24:57.943Z,99757.69
2022-08-25T20:27:34.822Z,99750.91
2022-08-25T20:30:05.335Z,99755.88
2022-08-25T20:32:35.745Z,99765.00
2022-08-25T20:35:09.297Z,99744.50
2022-08-25T20:37:42.074Z,99767.53
2022-08-25T20:40:12.143Z,99757.28
2022-08-25T20:42:40.779Z,99775.25
2022-08-25T20:45:13.574Z,99766.78
2022-08-25T20:47:44.631Z,99778.72
2022-08-25T20:50:15.115Z,99776.69
2022-08-25T20:52:44.084Z,99759.41
2022-08-25T20:55:13.965Z,99764.75
2022-08-25T20:57:42.474Z,99772.16
2022-08-25T21:00:12.915Z,99769.25
2022-08-25T21:02:41.499Z,99763.09
2022-08-25T21:05:10.450Z,99770.72
2022-08-25T21:07:40.737Z,99778.81
2022-08-25T21:10:14.074Z,99784.53
2022-08-25T21:12:43.334Z,99789.31
2022-08-25T21:15:13.148Z,99778.44
2022-08-25T21:17:51.410Z,99788.50
2022-08-25T21:20:21.222Z,99774.91
2022-08-25T21:22:51.606Z,99769.75
2022-08-25T21:25:22.067Z,99802.72
2022-08-25T21:27:50.616Z,99779.44
2022-08-25T21:30:19.306Z,99779.66
2022-08-25T21:32:52.886Z,99810.28
2022-08-25T21:35:23.337Z,99782.50
2022-08-25T21:37:53.815Z,99804.72
2022-08-25T21:40:23.390Z,99797.31
2022-08-25T21:42:52.415Z,99806.56
2022-08-25T21:45:21.667Z,99803.88
2022-08-25T21:47:51.984Z,99812.31
2022-08-25T21:50:21.353Z,99815.63
2022-08-25T21:52:54.516Z,99818.47
2022-08-25T21:55:25.195Z,99804.66
2022-08-25T21:57:54.861Z,99821.13
2022-08-25T22:00:24.111Z,99823.63
2022-08-25T22:02:53.749Z,99820.31
2022-08-25T22:05:22.436Z,99809.19
2022-08-25T22:07:50.887Z,99824.00
2022-08-25T22:10:20.857Z,99827.47
2022-08-25T22:12:50.765Z,99825.31
2022-08-25T22:15:20.457Z,99823.69
2022-08-25T22:17:49.448Z,99819.41
2022-08-25T22:20:19.796Z,99827.84
2022-08-25T22:22:48.933Z,99831.16
2022-08-25T22:25:18.358Z,99829.16
2022-08-25T22:27:48.027Z,99834.31
2022-08-25T22:30:27.666Z,99819.03
2022-08-25T22:32:59.646Z,99834.09
2022-08-25T22:35:28.711Z,99835.94
2022-08-25T22:37:57.202Z,99818.00
2022-08-25T22:40:27.173Z,99835.28
2022-08-25T22:42:57.675Z,99825.41
2022-08-25T22:45:29.286Z,99834.41
2022-08-25T22:47:57.941Z,99826.84
2022-08-25T22:50:27.385Z,99837.69
2022-08-25T22:52:56.138Z,99836.28
2022-08-25T22:55:24.802Z,99837.28
2022-08-25T22:57:56.691Z,99841.03
2022-08-25T23:00:25.631Z,99845.38
2022-08-25T23:02:56.222Z,99835.59
2022-08-25T23:05:24.799Z,99831.31
2022-08-25T23:07:53.295Z,99835.03
2022-08-25T23:10:22.921Z,99825.59
2022-08-25T23:12:51.749Z,99833.06
2022-08-25T23:15:20.432Z,99823.94
2022-08-25T23:17:50.076Z,99828.09
2022-08-25T23:20:37.942Z,99826.41
2022-08-25T23:23:14.057Z,99825.22
2022-08-25T23:25:42.811Z,99827.34
2022-08-25T23:28:11.341Z,99829.00
2022-08-25T23:30:40.104Z,99819.97
2022-08-25T23:33:15.212Z,99821.00
2022-08-25T23:35:50.690Z,99827.72
2022-08-25T23:38:19.185Z,99814.53
2022-08-25T23:40:48.112Z,99823.53
2022-08-25T23:43:16.591Z,99819.59
2022-08-25T23:45:46.565Z,99821.81
2022-08-25T23:48:15.343Z,99819.59
2022-08-25T23:50:54.019Z,99821.88
2022-08-25T23:53:22.857Z,99830.09
2022-08-25T23:55:53.046Z,99828.66
2022-08-25T23:58:22.717Z,99831.69
